Mc Alpin, Florida
Current Conditions -  °F | °C
As of 8:15 AM on Saturday 22 Nov 2014 (Local Time) from K24J Reporting Station
Broken Clouds Broken Clouds  
Wind Chill: 55°   Ceiling: 6000
Heat Index: 55°   Visibility: 10mi
Dew Point: 54°   Wind: 9mph
Humidity: 94%   Direction: 50°NE
Pressure: 30.35"   Gusts: NA
Location:  30.1386°N, 82.9504°W
Report Text: K24J 221315Z AUTO 05008KT 10SM BKN060 13/12 A3035 RMK AO1
Loading
Personal Weather Stations






























Interactive Weather Map New forecast layout! Learn more

10-Day Weather Forecast

Advertisements
Track Severe Weather on mobile